Washington, DC (20027)

4:17 PM EDT on September 30, 2014 (GMT -0400)
Dover-Crystal | Change Station
CLOSE
Current Station
Personal Weather Station
Location: Arlington, VA
Elevation: 282 ft
Nearby Weather Stations

Elev 282 ft 38.91 °N, 77.10 °W | Updated 1 minute ago

Partly Cloudy
Partly Cloudy
74.2 °F
Feels Like 75 °F
N
0.0
Wind Variable Wind from ESE
Gusts 8.0 mph

Today
High -- | Low -- °F
--% Chance of Precip.
Yesterday
High -- | Low -- °F
Precip. -- in
7:03 AM 6:52 PM
Waxing Crescent, 39% visible
Pressure 29.88 in
Visibility 10.0 miles
Clouds Few 3500 ft
Heat Index 75 °F
Dew Point 66 °F
Humidity 75%
Rainfall 0.00 in
Snow Depth Not available.
UV 3 out of 12
Pollen 2.90 out of 12
Air Quality Not available.
Flu Activity Not available.
METAR KDCA 301952Z 16003KT 10SM FEW035 25/16 A2988 RMK AO2 SLP117 T02500156

More Conditions Fewer Conditions

Pressure 29.88 in
Visibility 10.0 miles
Clouds Few 3500 ft
Heat Index 75 °F
Dew Point 66 °F
Humidity 75%
Rainfall 0.00 in
Snow Depth Not available.
UV 3 out of 12
Pollen 2.90 out of 12
Air Quality Not available.
Flu Activity Not available.
METAR KDCA 301952Z 16003KT 10SM FEW035 25/16 A2988 RMK AO2 SLP117 T02500156

More Conditions Fewer Conditions

10-Day Weather Forecast

Almanac

Astronomy

Sep. 30, 2014 Rise Set
Actual Time 7:03 AM EDT 6:52 PM EDT
Civil Twilight 6:36 AM EDT 7:19 PM EDT
Nautical Twilight 6:05 AM EDT 7:50 PM EDT
Astronomical Twilight 5:34 AM EDT 8:21 PM EDT
Moon 1:07 PM EDT 11:23 PM EDT
Length of Visible Light 12h 42m
Length of Day
11h 49m
Tomorrow will be 2m 31s shorter.
Waxing Crescent, 39% of the Moon is Illuminated
Today
Waxing Crescent
Oct 1
First Quarter
Oct 8
Full
Oct 15
Last Quarter
Oct 23
New

Today's Extremes

State Highs State Lows

Community

WunderPhotos

Upload Photos

1,757,738 photos uploaded!

Nearby

Snow Depth

Station Depth Elevation
No new snow has been reported.

Earthquake Activity

City Distance Mag. Time & Date
No recent earthquake activity has been reported nearby.
Minimum magnitude displayed is 2.5.

Coastal Water Temperatures

Place Temperature
Washington, DC 71.1 °F
Baltimore, MD 75.0 °F
Solomons Island, MD 73.9 °F

Nearby Weather Stations